Current Weather

Chicago O'Hare International

Chicago, Illinois (KORD)

Report from: Sunday, January 29, 2023 8:51 AM CST
Current time: Sunday, January 29, 2023 9:29 AM CST

Nearby weather
Weather history
Weather forecast

Temperature-6.1°C (21.0°F)
Wind chill-13.6°C (7.5°F)
Dew point-8.9°C (16.0°F)
Winds 13 kts (6.7 m/s, 15 mph) North (350°)
Visibility10 mi. (16.1 km)
Clouds Ceiling: Overcast 1,300 ft. (396 m)
Altimeter30.19 in.Hg (1022 mB)
Relative humidity81 %
Density altitude-2,875 ft. (-876 m)
Sea-level pressure102.3 kPa (1023 mB, 30.22 in.Hg)
Remarks Automated weather observing station with precipitation discriminator
Pressure rising more quickly
Flight conditions Marginal Visual Meteorological Conditions
Raw dataKORD 291451Z 35013KT 10SM OVC013 M06/M09 A3019 RMK AO2 SLP234 T10611089 53035
An error has occurred. This application may no longer respond until reloaded. Reload 🗙